sensor_id;sensor_type;location;lat;lon;timestamp;P1;durP1;ratioP1;P2;durP2;ratioP2
76731;SDS011;65656;51.130;13.658;2023-03-01T00:03:38;38.50;;;34.17;;
76731;SDS011;65656;51.130;13.658;2023-03-01T00:07:41;47.92;;;43.63;;
76731;SDS011;65656;51.130;13.658;2023-03-01T00:11:43;33.55;;;28.30;;
76731;SDS011;65656;51.130;13.658;2023-03-01T00:15:44;41.83;;;38.00;;
76731;SDS011;65656;51.130;13.658;2023-03-01T00:19:46;46.17;;;41.85;;
76731;SDS011;65656;51.130;13.658;2023-03-01T00:23:49;35.15;;;31.48;;
76731;SDS011;65656;51.130;13.658;2023-03-01T00:27:51;34.15;;;27.75;;
76731;SDS011;65656;51.130;13.658;2023-03-01T00:31:52;52.78;;;48.47;;
76731;SDS011;65656;51.130;13.658;2023-03-01T00:35:54;39.00;;;35.85;;
76731;SDS011;65656;51.130;13.658;2023-03-01T00:39:56;42.45;;;38.78;;
76731;SDS011;65656;51.130;13.658;2023-03-01T00:43:58;36.42;;;30.85;;
76731;SDS011;65656;51.130;13.658;2023-03-01T00:47:59;52.47;;;47.83;;
76731;SDS011;65656;51.130;13.658;2023-03-01T00:52:01;37.72;;;33.83;;
76731;SDS011;65656;51.130;13.658;2023-03-01T00:56:05;42.33;;;37.90;;
76731;SDS011;65656;51.130;13.658;2023-03-01T01:00:08;42.92;;;38.65;;
76731;SDS011;65656;51.130;13.658;2023-03-01T01:04:11;33.58;;;30.38;;
76731;SDS011;65656;51.130;13.658;2023-03-01T01:08:14;32.92;;;29.77;;
76731;SDS011;65656;51.130;13.658;2023-03-01T01:12:16;54.13;;;49.30;;
76731;SDS011;65656;51.130;13.658;2023-03-01T01:16:18;37.20;;;33.70;;
76731;SDS011;65656;51.130;13.658;2023-03-01T01:20:21;42.53;;;38.30;;
76731;SDS011;65656;51.130;13.658;2023-03-01T01:24:23;44.35;;;40.65;;
76731;SDS011;65656;51.130;13.658;2023-03-01T01:28:25;58.85;;;54.03;;
76731;SDS011;65656;51.130;13.658;2023-03-01T01:32:28;35.80;;;32.10;;
76731;SDS011;65656;51.130;13.658;2023-03-01T01:36:29;45.50;;;41.35;;
76731;SDS011;65656;51.130;13.658;2023-03-01T01:40:31;40.97;;;36.75;;
76731;SDS011;65656;51.130;13.658;2023-03-01T01:44:34;39.03;;;35.53;;
76731;SDS011;65656;51.130;13.658;2023-03-01T01:48:38;39.53;;;35.97;;
76731;SDS011;65656;51.130;13.658;2023-03-01T01:52:42;44.08;;;39.92;;
76731;SDS011;65656;51.130;13.658;2023-03-01T01:56:45;38.88;;;35.08;;
76731;SDS011;65656;51.130;13.658;2023-03-01T02:00:51;36.03;;;32.45;;
76731;SDS011;65656;51.130;13.658;2023-03-01T02:05:01;42.50;;;38.78;;
76731;SDS011;65656;51.130;13.658;2023-03-01T02:09:07;38.55;;;35.10;;
76731;SDS011;65656;51.130;13.658;2023-03-01T02:13:13;38.72;;;34.97;;
76731;SDS011;65656;51.130;13.658;2023-03-01T02:17:17;38.13;;;34.58;;
76731;SDS011;65656;51.130;13.658;2023-03-01T02:21:36;58.60;;;53.92;;
76731;SDS011;65656;51.130;13.658;2023-03-01T02:25:46;45.60;;;41.38;;
76731;SDS011;65656;51.130;13.658;2023-03-01T02:29:52;41.53;;;37.75;;
76731;SDS011;65656;51.130;13.658;2023-03-01T02:33:56;41.83;;;37.58;;
76731;SDS011;65656;51.130;13.658;2023-03-01T02:37:59;43.47;;;39.08;;
76731;SDS011;65656;51.130;13.658;2023-03-01T02:42:02;41.63;;;38.03;;
76731;SDS011;65656;51.130;13.658;2023-03-01T02:46:06;53.08;;;48.55;;
76731;SDS011;65656;51.130;13.658;2023-03-01T02:50:12;57.70;;;52.85;;
76731;SDS011;65656;51.130;13.658;2023-03-01T02:58:25;37.75;;;34.17;;
76731;SDS011;65656;51.130;13.658;2023-03-01T03:02:29;52.35;;;48.28;;
76731;SDS011;65656;51.130;13.658;2023-03-01T03:06:31;34.70;;;31.05;;
76731;SDS011;65656;51.130;13.658;2023-03-01T03:10:35;37.17;;;32.90;;
76731;SDS011;65656;51.130;13.658;2023-03-01T03:14:37;38.45;;;34.58;;
76731;SDS011;65656;51.130;13.658;2023-03-01T03:18:40;43.83;;;37.38;;
76731;SDS011;65656;51.130;13.658;2023-03-01T03:22:42;42.92;;;38.55;;
76731;SDS011;65656;51.130;13.658;2023-03-01T03:26:43;44.88;;;40.45;;
76731;SDS011;65656;51.130;13.658;2023-03-01T03:30:44;53.97;;;49.40;;
76731;SDS011;65656;51.130;13.658;2023-03-01T03:34:47;38.30;;;34.42;;
76731;SDS011;65656;51.130;13.658;2023-03-01T03:38:49;41.88;;;37.60;;
76731;SDS011;65656;51.130;13.658;2023-03-01T03:42:51;37.47;;;31.40;;
76731;SDS011;65656;51.130;13.658;2023-03-01T03:46:52;48.40;;;44.25;;
76731;SDS011;65656;51.130;13.658;2023-03-01T03:50:55;43.30;;;38.97;;
76731;SDS011;65656;51.130;13.658;2023-03-01T03:54:57;52.72;;;48.08;;
76731;SDS011;65656;51.130;13.658;2023-03-01T03:58:58;34.95;;;29.83;;
76731;SDS011;65656;51.130;13.658;2023-03-01T04:03:00;41.70;;;37.80;;
76731;SDS011;65656;51.130;13.658;2023-03-01T04:07:03;54.85;;;50.08;;
76731;SDS011;65656;51.130;13.658;2023-03-01T04:11:05;45.95;;;41.88;;
76731;SDS011;65656;51.130;13.658;2023-03-01T04:15:07;55.75;;;51.22;;
76731;SDS011;65656;51.130;13.658;2023-03-01T04:19:09;39.90;;;35.47;;
76731;SDS011;65656;51.130;13.658;2023-03-01T04:23:12;43.55;;;39.35;;
76731;SDS011;65656;51.130;13.658;2023-03-01T04:27:14;52.97;;;48.55;;
76731;SDS011;65656;51.130;13.658;2023-03-01T04:31:17;50.65;;;46.50;;
76731;SDS011;65656;51.130;13.658;2023-03-01T04:35:20;61.75;;;56.83;;
76731;SDS011;65656;51.130;13.658;2023-03-01T04:39:22;65.10;;;59.80;;
76731;SDS011;65656;51.130;13.658;2023-03-01T04:43:24;37.70;;;34.10;;
76731;SDS011;65656;51.130;13.658;2023-03-01T04:47:25;36.63;;;31.67;;
76731;SDS011;65656;51.130;13.658;2023-03-01T04:51:27;46.90;;;42.80;;
76731;SDS011;65656;51.130;13.658;2023-03-01T04:55:30;38.25;;;34.85;;
76731;SDS011;65656;51.130;13.658;2023-03-01T04:59:31;47.00;;;42.53;;
76731;SDS011;65656;51.130;13.658;2023-03-01T05:03:33;39.08;;;35.17;;
76731;SDS011;65656;51.130;13.658;2023-03-01T05:07:34;40.15;;;35.95;;
76731;SDS011;65656;51.130;13.658;2023-03-01T05:11:37;37.65;;;34.25;;
76731;SDS011;65656;51.130;13.658;2023-03-01T05:15:39;46.50;;;42.58;;
76731;SDS011;65656;51.130;13.658;2023-03-01T05:19:40;36.72;;;31.15;;
76731;SDS011;65656;51.130;13.658;2023-03-01T05:23:42;59.15;;;53.97;;
76731;SDS011;65656;51.130;13.658;2023-03-01T05:27:45;41.65;;;37.70;;
76731;SDS011;65656;51.130;13.658;2023-03-01T05:31:46;42.40;;;37.25;;
76731;SDS011;65656;51.130;13.658;2023-03-01T05:35:48;48.58;;;44.55;;
76731;SDS011;65656;51.130;13.658;2023-03-01T05:39:51;41.28;;;37.17;;
76731;SDS011;65656;51.130;13.658;2023-03-01T05:43:53;40.00;;;36.05;;
76731;SDS011;65656;51.130;13.658;2023-03-01T05:47:55;38.33;;;34.47;;
76731;SDS011;65656;51.130;13.658;2023-03-01T05:51:56;48.53;;;43.83;;
76731;SDS011;65656;51.130;13.658;2023-03-01T05:55:58;39.40;;;35.85;;
76731;SDS011;65656;51.130;13.658;2023-03-01T06:00:00;49.42;;;44.85;;
76731;SDS011;65656;51.130;13.658;2023-03-01T06:04:02;47.55;;;42.80;;
76731;SDS011;65656;51.130;13.658;2023-03-01T06:08:05;48.25;;;43.05;;
76731;SDS011;65656;51.130;13.658;2023-03-01T06:12:06;48.03;;;43.42;;
76731;SDS011;65656;51.130;13.658;2023-03-01T06:16:10;42.45;;;38.00;;
76731;SDS011;65656;51.130;13.658;2023-03-01T06:20:13;40.10;;;36.20;;
76731;SDS011;65656;51.130;13.658;2023-03-01T06:24:15;46.42;;;41.85;;
76731;SDS011;65656;51.130;13.658;2023-03-01T06:28:17;49.45;;;45.00;;
76731;SDS011;65656;51.130;13.658;2023-03-01T06:32:20;51.63;;;46.65;;
76731;SDS011;65656;51.130;13.658;2023-03-01T06:36:21;40.45;;;36.83;;
76731;SDS011;65656;51.130;13.658;2023-03-01T06:40:23;50.83;;;46.45;;
76731;SDS011;65656;51.130;13.658;2023-03-01T06:44:24;51.05;;;46.40;;
76731;SDS011;65656;51.130;13.658;2023-03-01T06:48:27;48.78;;;44.38;;
76731;SDS011;65656;51.130;13.658;2023-03-01T06:52:30;37.00;;;33.03;;
76731;SDS011;65656;51.130;13.658;2023-03-01T06:56:32;38.20;;;34.40;;
76731;SDS011;65656;51.130;13.658;2023-03-01T07:00:34;58.55;;;53.55;;
76731;SDS011;65656;51.130;13.658;2023-03-01T07:04:37;46.42;;;42.20;;
76731;SDS011;65656;51.130;13.658;2023-03-01T07:08:38;48.42;;;43.90;;
76731;SDS011;65656;51.130;13.658;2023-03-01T07:12:40;43.45;;;39.63;;
76731;SDS011;65656;51.130;13.658;2023-03-01T07:16:41;51.72;;;47.33;;
76731;SDS011;65656;51.130;13.658;2023-03-01T07:20:44;46.38;;;42.03;;
76731;SDS011;65656;51.130;13.658;2023-03-01T07:24:46;46.60;;;41.85;;
76731;SDS011;65656;51.130;13.658;2023-03-01T07:28:47;73.05;;;68.13;;
76731;SDS011;65656;51.130;13.658;2023-03-01T07:32:49;35.20;;;30.83;;
76731;SDS011;65656;51.130;13.658;2023-03-01T07:36:52;41.72;;;37.75;;
76731;SDS011;65656;51.130;13.658;2023-03-01T07:40:53;49.50;;;44.67;;
76731;SDS011;65656;51.130;13.658;2023-03-01T07:44:58;43.33;;;39.33;;
76731;SDS011;65656;51.130;13.658;2023-03-01T07:49:00;39.90;;;35.97;;
76731;SDS011;65656;51.130;13.658;2023-03-01T07:53:03;40.25;;;36.13;;
76731;SDS011;65656;51.130;13.658;2023-03-01T07:57:04;41.08;;;34.60;;
76731;SDS011;65656;51.130;13.658;2023-03-01T08:01:06;44.15;;;38.05;;
76731;SDS011;65656;51.130;13.658;2023-03-01T08:05:09;38.05;;;34.10;;
76731;SDS011;65656;51.130;13.658;2023-03-01T08:09:12;42.83;;;35.70;;
76731;SDS011;65656;51.130;13.658;2023-03-01T08:13:14;36.25;;;32.58;;
76731;SDS011;65656;51.130;13.658;2023-03-01T08:17:15;40.58;;;34.63;;
76731;SDS011;65656;51.130;13.658;2023-03-01T08:21:17;37.92;;;32.10;;
76731;SDS011;65656;51.130;13.658;2023-03-01T08:25:21;39.22;;;35.10;;
76731;SDS011;65656;51.130;13.658;2023-03-01T08:29:22;41.17;;;37.00;;
76731;SDS011;65656;51.130;13.658;2023-03-01T08:33:24;40.40;;;36.20;;
76731;SDS011;65656;51.130;13.658;2023-03-01T08:37:25;37.63;;;30.45;;
76731;SDS011;65656;51.130;13.658;2023-03-01T08:41:28;42.17;;;37.97;;
76731;SDS011;65656;51.130;13.658;2023-03-01T08:45:30;34.72;;;29.98;;
76731;SDS011;65656;51.130;13.658;2023-03-01T08:49:32;39.38;;;35.75;;
76731;SDS011;65656;51.130;13.658;2023-03-01T08:53:33;45.05;;;40.72;;
76731;SDS011;65656;51.130;13.658;2023-03-01T08:57:36;40.58;;;36.45;;
76731;SDS011;65656;51.130;13.658;2023-03-01T09:01:38;38.35;;;34.40;;
76731;SDS011;65656;51.130;13.658;2023-03-01T09:05:40;39.75;;;32.88;;
76731;SDS011;65656;51.130;13.658;2023-03-01T09:09:41;42.85;;;37.33;;
76731;SDS011;65656;51.130;13.658;2023-03-01T09:13:44;42.22;;;37.78;;
76731;SDS011;65656;51.130;13.658;2023-03-01T09:17:47;35.40;;;30.05;;
76731;SDS011;65656;51.130;13.658;2023-03-01T09:21:48;43.45;;;38.80;;
76731;SDS011;65656;51.130;13.658;2023-03-01T09:25:50;37.00;;;30.85;;
76731;SDS011;65656;51.130;13.658;2023-03-01T09:29:52;41.30;;;37.17;;
76731;SDS011;65656;51.130;13.658;2023-03-01T09:33:54;39.47;;;33.67;;
76731;SDS011;65656;51.130;13.658;2023-03-01T09:37:56;36.63;;;31.23;;
76731;SDS011;65656;51.130;13.658;2023-03-01T09:42:00;30.33;;;26.98;;
76731;SDS011;65656;51.130;13.658;2023-03-01T09:50:09;32.20;;;23.77;;
76731;SDS011;65656;51.130;13.658;2023-03-01T09:54:14;35.60;;;32.13;;
76731;SDS011;65656;51.130;13.658;2023-03-01T09:58:23;42.10;;;37.55;;
76731;SDS011;65656;51.130;13.658;2023-03-01T10:02:39;32.20;;;28.00;;
76731;SDS011;65656;51.130;13.658;2023-03-01T10:06:45;68.63;;;60.67;;
76731;SDS011;65656;51.130;13.658;2023-03-01T10:15:00;33.30;;;29.80;;
76731;SDS011;65656;51.130;13.658;2023-03-01T10:19:08;30.42;;;27.08;;
76731;SDS011;65656;51.130;13.658;2023-03-01T10:23:13;39.00;;;35.50;;
76731;SDS011;65656;51.130;13.658;2023-03-01T10:27:16;33.63;;;30.48;;
76731;SDS011;65656;51.130;13.658;2023-03-01T10:31:22;33.20;;;29.95;;
76731;SDS011;65656;51.130;13.658;2023-03-01T10:35:28;29.23;;;25.35;;
76731;SDS011;65656;51.130;13.658;2023-03-01T10:39:33;26.00;;;23.25;;
76731;SDS011;65656;51.130;13.658;2023-03-01T10:43:40;34.80;;;30.08;;
76731;SDS011;65656;51.130;13.658;2023-03-01T10:47:45;27.30;;;24.15;;
76731;SDS011;65656;51.130;13.658;2023-03-01T10:51:48;29.17;;;20.02;;
76731;SDS011;65656;51.130;13.658;2023-03-01T10:55:56;30.80;;;26.65;;
76731;SDS011;65656;51.130;13.658;2023-03-01T11:00:02;27.30;;;23.02;;
76731;SDS011;65656;51.130;13.658;2023-03-01T11:04:15;38.33;;;34.58;;
76731;SDS011;65656;51.130;13.658;2023-03-01T11:08:28;29.98;;;26.15;;
76731;SDS011;65656;51.130;13.658;2023-03-01T11:12:34;30.10;;;26.70;;
76731;SDS011;65656;51.130;13.658;2023-03-01T11:16:37;27.65;;;24.13;;
76731;SDS011;65656;51.130;13.658;2023-03-01T11:20:39;28.15;;;24.25;;
76731;SDS011;65656;51.130;13.658;2023-03-01T11:24:44;26.30;;;23.67;;
76731;SDS011;65656;51.130;13.658;2023-03-01T11:29:00;28.65;;;24.77;;
76731;SDS011;65656;51.130;13.658;2023-03-01T11:33:13;26.65;;;23.98;;
76731;SDS011;65656;51.130;13.658;2023-03-01T11:37:21;26.30;;;22.05;;
76731;SDS011;65656;51.130;13.658;2023-03-01T11:41:31;28.23;;;24.98;;
76731;SDS011;65656;51.130;13.658;2023-03-01T11:45:38;42.03;;;38.75;;
76731;SDS011;65656;51.130;13.658;2023-03-01T11:49:54;21.67;;;19.33;;
76731;SDS011;65656;51.130;13.658;2023-03-01T11:54:18;22.52;;;20.30;;
76731;SDS011;65656;51.130;13.658;2023-03-01T12:02:48;30.27;;;27.75;;
76731;SDS011;65656;51.130;13.658;2023-03-01T12:07:03;24.05;;;21.70;;
76731;SDS011;65656;51.130;13.658;2023-03-01T12:11:16;22.98;;;20.83;;
76731;SDS011;65656;51.130;13.658;2023-03-01T12:15:37;27.55;;;23.95;;
76731;SDS011;65656;51.130;13.658;2023-03-01T12:19:51;25.60;;;23.15;;
76731;SDS011;65656;51.130;13.658;2023-03-01T12:24:21;23.48;;;18.83;;
76731;SDS011;65656;51.130;13.658;2023-03-01T12:28:40;22.98;;;19.85;;
76731;SDS011;65656;51.130;13.658;2023-03-01T12:33:06;26.05;;;23.00;;
76731;SDS011;65656;51.130;13.658;2023-03-01T12:37:23;28.08;;;25.38;;
76731;SDS011;65656;51.130;13.658;2023-03-01T12:41:33;22.27;;;19.33;;
76731;SDS011;65656;51.130;13.658;2023-03-01T12:45:47;26.42;;;24.00;;
76731;SDS011;65656;51.130;13.658;2023-03-01T12:50:01;22.02;;;18.15;;
76731;SDS011;65656;51.130;13.658;2023-03-01T12:54:06;27.65;;;25.05;;
76731;SDS011;65656;51.130;13.658;2023-03-01T12:58:18;26.75;;;24.00;;
76731;SDS011;65656;51.130;13.658;2023-03-01T13:02:26;25.33;;;22.85;;
76731;SDS011;65656;51.130;13.658;2023-03-01T13:06:37;24.58;;;22.27;;
76731;SDS011;65656;51.130;13.658;2023-03-01T13:10:47;22.23;;;17.77;;
76731;SDS011;65656;51.130;13.658;2023-03-01T13:14:53;23.67;;;21.27;;
76731;SDS011;65656;51.130;13.658;2023-03-01T13:19:05;24.30;;;21.80;;
76731;SDS011;65656;51.130;13.658;2023-03-01T13:23:11;24.67;;;20.75;;
76731;SDS011;65656;51.130;13.658;2023-03-01T13:27:24;25.60;;;20.90;;
76731;SDS011;65656;51.130;13.658;2023-03-01T13:36:01;22.73;;;20.52;;
76731;SDS011;65656;51.130;13.658;2023-03-01T13:40:07;28.42;;;25.80;;
76731;SDS011;65656;51.130;13.658;2023-03-01T13:44:47;21.50;;;19.33;;
76731;SDS011;65656;51.130;13.658;2023-03-01T13:48:49;21.92;;;18.40;;
76731;SDS011;65656;51.130;13.658;2023-03-01T13:52:54;22.08;;;16.65;;
76731;SDS011;65656;51.130;13.658;2023-03-01T13:57:00;20.17;;;17.85;;
76731;SDS011;65656;51.130;13.658;2023-03-01T14:01:04;22.17;;;19.98;;
76731;SDS011;65656;51.130;13.658;2023-03-01T14:05:08;23.20;;;20.42;;
76731;SDS011;65656;51.130;13.658;2023-03-01T14:09:18;19.05;;;17.05;;
76731;SDS011;65656;51.130;13.658;2023-03-01T14:13:27;22.75;;;20.35;;
76731;SDS011;65656;51.130;13.658;2023-03-01T14:17:55;20.25;;;18.13;;
76731;SDS011;65656;51.130;13.658;2023-03-01T14:22:05;18.17;;;16.40;;
76731;SDS011;65656;51.130;13.658;2023-03-01T14:26:20;20.05;;;18.08;;
76731;SDS011;65656;51.130;13.658;2023-03-01T14:30:23;20.55;;;18.40;;
76731;SDS011;65656;51.130;13.658;2023-03-01T14:34:28;24.35;;;21.98;;
76731;SDS011;65656;51.130;13.658;2023-03-01T14:38:30;24.08;;;21.60;;
76731;SDS011;65656;51.130;13.658;2023-03-01T14:42:35;27.05;;;24.38;;
76731;SDS011;65656;51.130;13.658;2023-03-01T14:46:38;23.67;;;21.33;;
76731;SDS011;65656;51.130;13.658;2023-03-01T14:50:43;21.17;;;16.33;;
76731;SDS011;65656;51.130;13.658;2023-03-01T14:54:46;20.05;;;18.10;;
76731;SDS011;65656;51.130;13.658;2023-03-01T14:58:58;22.13;;;18.40;;
76731;SDS011;65656;51.130;13.658;2023-03-01T15:03:00;22.35;;;16.42;;
76731;SDS011;65656;51.130;13.658;2023-03-01T15:07:09;24.67;;;19.58;;
76731;SDS011;65656;51.130;13.658;2023-03-01T15:11:18;25.95;;;23.45;;
76731;SDS011;65656;51.130;13.658;2023-03-01T15:15:32;21.70;;;17.90;;
76731;SDS011;65656;51.130;13.658;2023-03-01T15:19:37;22.90;;;17.95;;
76731;SDS011;65656;51.130;13.658;2023-03-01T15:23:40;21.75;;;19.27;;
76731;SDS011;65656;51.130;13.658;2023-03-01T15:27:44;18.50;;;15.65;;
76731;SDS011;65656;51.130;13.658;2023-03-01T15:31:53;17.60;;;15.05;;
76731;SDS011;65656;51.130;13.658;2023-03-01T15:35:56;22.92;;;20.65;;
76731;SDS011;65656;51.130;13.658;2023-03-01T15:40:01;26.73;;;23.95;;
76731;SDS011;65656;51.130;13.658;2023-03-01T15:44:13;19.13;;;16.45;;
76731;SDS011;65656;51.130;13.658;2023-03-01T15:48:17;18.67;;;16.60;;
76731;SDS011;65656;51.130;13.658;2023-03-01T15:52:21;21.48;;;19.25;;
76731;SDS011;65656;51.130;13.658;2023-03-01T15:56:27;22.73;;;20.15;;
76731;SDS011;65656;51.130;13.658;2023-03-01T16:00:29;21.27;;;16.70;;
76731;SDS011;65656;51.130;13.658;2023-03-01T16:04:31;22.15;;;17.80;;
76731;SDS011;65656;51.130;13.658;2023-03-01T16:08:32;19.77;;;15.88;;
76731;SDS011;65656;51.130;13.658;2023-03-01T16:12:35;22.35;;;15.38;;
76731;SDS011;65656;51.130;13.658;2023-03-01T16:16:36;20.60;;;18.77;;
76731;SDS011;65656;51.130;13.658;2023-03-01T16:20:39;15.75;;;13.50;;
76731;SDS011;65656;51.130;13.658;2023-03-01T16:24:40;19.20;;;17.15;;
76731;SDS011;65656;51.130;13.658;2023-03-01T16:28:43;16.80;;;12.90;;
76731;SDS011;65656;51.130;13.658;2023-03-01T16:32:47;19.13;;;16.10;;
76731;SDS011;65656;51.130;13.658;2023-03-01T16:36:49;23.73;;;21.38;;
76731;SDS011;65656;51.130;13.658;2023-03-01T16:40:51;22.92;;;20.80;;
76731;SDS011;65656;51.130;13.658;2023-03-01T16:44:55;19.23;;;16.33;;
76731;SDS011;65656;51.130;13.658;2023-03-01T16:48:57;18.75;;;16.83;;
76731;SDS011;65656;51.130;13.658;2023-03-01T16:52:58;21.30;;;18.73;;
76731;SDS011;65656;51.130;13.658;2023-03-01T16:57:00;18.42;;;13.13;;
76731;SDS011;65656;51.130;13.658;2023-03-01T17:01:07;19.77;;;16.92;;
76731;SDS011;65656;51.130;13.658;2023-03-01T17:05:10;26.85;;;24.08;;
76731;SDS011;65656;51.130;13.658;2023-03-01T17:09:12;18.83;;;15.90;;
76731;SDS011;65656;51.130;13.658;2023-03-01T17:13:14;28.45;;;25.60;;
76731;SDS011;65656;51.130;13.658;2023-03-01T17:17:17;32.47;;;29.63;;
76731;SDS011;65656;51.130;13.658;2023-03-01T17:21:18;25.63;;;23.08;;
76731;SDS011;65656;51.130;13.658;2023-03-01T17:25:20;21.58;;;18.48;;
76731;SDS011;65656;51.130;13.658;2023-03-01T17:29:21;22.80;;;19.95;;
76731;SDS011;65656;51.130;13.658;2023-03-01T17:33:24;23.75;;;18.55;;
76731;SDS011;65656;51.130;13.658;2023-03-01T17:37:26;22.05;;;19.70;;
76731;SDS011;65656;51.130;13.658;2023-03-01T17:41:27;24.52;;;22.05;;
76731;SDS011;65656;51.130;13.658;2023-03-01T17:45:29;25.33;;;21.42;;
76731;SDS011;65656;51.130;13.658;2023-03-01T17:49:32;22.35;;;18.08;;
76731;SDS011;65656;51.130;13.658;2023-03-01T17:53:33;31.50;;;26.92;;
76731;SDS011;65656;51.130;13.658;2023-03-01T17:57:36;34.90;;;31.80;;
76731;SDS011;65656;51.130;13.658;2023-03-01T18:01:40;27.30;;;24.77;;
76731;SDS011;65656;51.130;13.658;2023-03-01T18:05:43;33.10;;;29.92;;
76731;SDS011;65656;51.130;13.658;2023-03-01T18:09:45;32.30;;;28.35;;
76731;SDS011;65656;51.130;13.658;2023-03-01T18:13:46;41.47;;;37.28;;
76731;SDS011;65656;51.130;13.658;2023-03-01T18:17:48;39.78;;;35.65;;
76731;SDS011;65656;51.130;13.658;2023-03-01T18:21:51;35.05;;;31.60;;
76731;SDS011;65656;51.130;13.658;2023-03-01T18:25:56;35.90;;;32.13;;
76731;SDS011;65656;51.130;13.658;2023-03-01T18:29:58;30.33;;;25.73;;
76731;SDS011;65656;51.130;13.658;2023-03-01T18:34:00;42.08;;;38.70;;
76731;SDS011;65656;51.130;13.658;2023-03-01T18:38:03;37.05;;;33.50;;
76731;SDS011;65656;51.130;13.658;2023-03-01T18:42:04;34.83;;;31.55;;
76731;SDS011;65656;51.130;13.658;2023-03-01T18:46:06;38.63;;;35.38;;
76731;SDS011;65656;51.130;13.658;2023-03-01T18:50:08;30.35;;;27.17;;
76731;SDS011;65656;51.130;13.658;2023-03-01T18:54:11;30.17;;;27.35;;
76731;SDS011;65656;51.130;13.658;2023-03-01T18:58:13;35.83;;;32.83;;
76731;SDS011;65656;51.130;13.658;2023-03-01T19:02:14;32.58;;;29.42;;
76731;SDS011;65656;51.130;13.658;2023-03-01T19:06:16;30.63;;;27.55;;
76731;SDS011;65656;51.130;13.658;2023-03-01T19:10:20;28.50;;;25.65;;
76731;SDS011;65656;51.130;13.658;2023-03-01T19:14:22;31.15;;;27.98;;
76731;SDS011;65656;51.130;13.658;2023-03-01T19:18:23;30.98;;;27.83;;
76731;SDS011;65656;51.130;13.658;2023-03-01T19:22:25;35.88;;;32.92;;
76731;SDS011;65656;51.130;13.658;2023-03-01T19:26:29;44.17;;;40.70;;
76731;SDS011;65656;51.130;13.658;2023-03-01T19:30:32;34.17;;;30.77;;
76731;SDS011;65656;51.130;13.658;2023-03-01T19:34:33;44.08;;;40.30;;
76731;SDS011;65656;51.130;13.658;2023-03-01T19:38:35;37.10;;;33.65;;
76731;SDS011;65656;51.130;13.658;2023-03-01T19:42:39;40.83;;;37.15;;
76731;SDS011;65656;51.130;13.658;2023-03-01T19:46:40;38.50;;;33.17;;
76731;SDS011;65656;51.130;13.658;2023-03-01T19:50:42;36.78;;;33.53;;
76731;SDS011;65656;51.130;13.658;2023-03-01T19:54:44;31.55;;;28.30;;
76731;SDS011;65656;51.130;13.658;2023-03-01T19:58:47;27.30;;;23.65;;
76731;SDS011;65656;51.130;13.658;2023-03-01T20:02:48;32.10;;;28.75;;
76731;SDS011;65656;51.130;13.658;2023-03-01T20:06:50;27.10;;;24.52;;
76731;SDS011;65656;51.130;13.658;2023-03-01T20:10:51;24.67;;;22.00;;
76731;SDS011;65656;51.130;13.658;2023-03-01T20:14:54;22.98;;;20.25;;
76731;SDS011;65656;51.130;13.658;2023-03-01T20:18:58;23.33;;;19.83;;
76731;SDS011;65656;51.130;13.658;2023-03-01T20:23:00;35.08;;;32.08;;
76731;SDS011;65656;51.130;13.658;2023-03-01T20:27:01;35.20;;;32.20;;
76731;SDS011;65656;51.130;13.658;2023-03-01T20:31:05;27.48;;;24.85;;
76731;SDS011;65656;51.130;13.658;2023-03-01T20:35:08;23.63;;;21.00;;
76731;SDS011;65656;51.130;13.658;2023-03-01T20:39:10;19.60;;;17.73;;
76731;SDS011;65656;51.130;13.658;2023-03-01T20:43:12;26.65;;;22.38;;
76731;SDS011;65656;51.130;13.658;2023-03-01T20:47:14;22.83;;;20.58;;
76731;SDS011;65656;51.130;13.658;2023-03-01T20:51:16;25.73;;;23.20;;
76731;SDS011;65656;51.130;13.658;2023-03-01T20:55:18;31.00;;;28.08;;
76731;SDS011;65656;51.130;13.658;2023-03-01T20:59:19;24.55;;;20.92;;
76731;SDS011;65656;51.130;13.658;2023-03-01T21:03:22;27.45;;;24.95;;
76731;SDS011;65656;51.130;13.658;2023-03-01T21:07:24;36.78;;;34.00;;
76731;SDS011;65656;51.130;13.658;2023-03-01T21:11:25;30.95;;;28.25;;
76731;SDS011;65656;51.130;13.658;2023-03-01T21:15:27;27.05;;;24.48;;
76731;SDS011;65656;51.130;13.658;2023-03-01T21:19:31;23.08;;;20.95;;
76731;SDS011;65656;51.130;13.658;2023-03-01T21:23:37;26.85;;;24.42;;
76731;SDS011;65656;51.130;13.658;2023-03-01T21:27:39;24.67;;;22.23;;
76731;SDS011;65656;51.130;13.658;2023-03-01T21:31:41;24.83;;;22.33;;
76731;SDS011;65656;51.130;13.658;2023-03-01T21:35:43;30.33;;;27.23;;
76731;SDS011;65656;51.130;13.658;2023-03-01T21:39:45;34.83;;;30.23;;
76731;SDS011;65656;51.130;13.658;2023-03-01T21:43:47;33.65;;;29.90;;
76731;SDS011;65656;51.130;13.658;2023-03-01T21:47:49;30.65;;;27.50;;
76731;SDS011;65656;51.130;13.658;2023-03-01T21:51:52;31.00;;;27.88;;
76731;SDS011;65656;51.130;13.658;2023-03-01T21:55:54;39.53;;;36.20;;
76731;SDS011;65656;51.130;13.658;2023-03-01T21:59:55;36.08;;;32.70;;
76731;SDS011;65656;51.130;13.658;2023-03-01T22:03:57;35.10;;;31.98;;
76731;SDS011;65656;51.130;13.658;2023-03-01T22:08:01;38.55;;;35.03;;
76731;SDS011;65656;51.130;13.658;2023-03-01T22:12:03;29.55;;;26.83;;
76731;SDS011;65656;51.130;13.658;2023-03-01T22:16:05;27.90;;;25.08;;
76731;SDS011;65656;51.130;13.658;2023-03-01T22:20:07;36.30;;;33.03;;
76731;SDS011;65656;51.130;13.658;2023-03-01T22:24:11;25.23;;;22.60;;
76731;SDS011;65656;51.130;13.658;2023-03-01T22:28:13;23.38;;;19.23;;
76731;SDS011;65656;51.130;13.658;2023-03-01T22:32:14;26.50;;;22.02;;
76731;SDS011;65656;51.130;13.658;2023-03-01T22:36:16;23.75;;;21.58;;
76731;SDS011;65656;51.130;13.658;2023-03-01T22:40:19;25.35;;;22.20;;
76731;SDS011;65656;51.130;13.658;2023-03-01T22:44:22;27.30;;;22.63;;
76731;SDS011;65656;51.130;13.658;2023-03-01T22:48:24;37.88;;;34.55;;
76731;SDS011;65656;51.130;13.658;2023-03-01T22:52:26;29.95;;;27.05;;
76731;SDS011;65656;51.130;13.658;2023-03-01T22:56:30;31.23;;;27.92;;
76731;SDS011;65656;51.130;13.658;2023-03-01T23:00:33;25.52;;;22.52;;
76731;SDS011;65656;51.130;13.658;2023-03-01T23:04:34;31.38;;;28.20;;
76731;SDS011;65656;51.130;13.658;2023-03-01T23:08:36;34.90;;;32.03;;
76731;SDS011;65656;51.130;13.658;2023-03-01T23:12:39;28.25;;;25.52;;
76731;SDS011;65656;51.130;13.658;2023-03-01T23:16:41;62.25;;;58.67;;
76731;SDS011;65656;51.130;13.658;2023-03-01T23:20:43;41.15;;;37.33;;
76731;SDS011;65656;51.130;13.658;2023-03-01T23:24:44;37.25;;;33.88;;
76731;SDS011;65656;51.130;13.658;2023-03-01T23:28:47;27.98;;;25.00;;
76731;SDS011;65656;51.130;13.658;2023-03-01T23:32:49;38.47;;;35.03;;
76731;SDS011;65656;51.130;13.658;2023-03-01T23:36:50;30.98;;;27.92;;
76731;SDS011;65656;51.130;13.658;2023-03-01T23:40:53;41.35;;;37.97;;
76731;SDS011;65656;51.130;13.658;2023-03-01T23:44:55;37.88;;;34.53;;
76731;SDS011;65656;51.130;13.658;2023-03-01T23:48:57;32.15;;;29.38;;